createdAt,value
2019-03-28T00:01:36.815Z,21.52
2019-03-28T00:04:07.294Z,26.87
2019-03-28T00:06:36.443Z,21.85
2019-03-28T00:09:07.915Z,25.57
2019-03-28T00:11:36.947Z,29.12
2019-03-28T00:14:05.792Z,21.33
2019-03-28T00:16:34.635Z,20.48
2019-03-28T00:19:03.574Z,20.60
2019-03-28T00:21:32.120Z,20.95
2019-03-28T00:24:17.639Z,20.57
2019-03-28T00:26:46.594Z,24.57
2019-03-28T00:29:15.150Z,17.27
2019-03-28T00:31:44.245Z,27.30
2019-03-28T00:34:14.138Z,20.57
2019-03-28T00:36:42.956Z,19.80
2019-03-28T00:39:13.610Z,23.47
2019-03-28T00:41:42.432Z,17.40
2019-03-28T00:44:12.340Z,23.00
2019-03-28T00:46:41.290Z,23.87
2019-03-28T00:49:09.857Z,21.25
2019-03-28T00:51:38.679Z,23.62
2019-03-28T00:54:07.550Z,24.45
2019-03-28T00:56:46.622Z,28.12
2019-03-28T00:59:07.928Z,24.10
2019-03-28T01:01:36.639Z,24.43
2019-03-28T01:04:05.602Z,22.25
2019-03-28T01:06:34.441Z,27.65
2019-03-28T01:09:04.299Z,23.65
2019-03-28T01:11:32.953Z,20.75
2019-03-28T01:14:01.850Z,23.12
2019-03-28T01:16:30.441Z,26.20
2019-03-28T01:18:59.291Z,14.20
2019-03-28T01:21:28.161Z,21.90
2019-03-28T01:23:57.153Z,24.20
2019-03-28T01:26:25.778Z,26.80
2019-03-28T01:28:54.565Z,24.15
2019-03-28T01:31:23.179Z,27.80
2019-03-28T01:33:52.631Z,20.50
2019-03-28T01:36:21.633Z,24.20
2019-03-28T01:38:50.647Z,30.10
2019-03-28T01:41:19.488Z,22.15
2019-03-28T01:43:48.525Z,30.45
2019-03-28T01:46:17.205Z,30.32
2019-03-28T01:48:46.166Z,28.55
2019-03-28T01:51:16.413Z,24.00
2019-03-28T01:53:45.439Z,27.22
2019-03-28T01:56:15.987Z,22.95
2019-03-28T01:58:45.061Z,23.90
2019-03-28T02:01:13.976Z,23.85
2019-03-28T02:03:43.004Z,28.67
2019-03-28T02:06:12.101Z,21.00
2019-03-28T02:08:41.248Z,26.62
2019-03-28T02:11:10.416Z,26.05
2019-03-28T02:13:40.103Z,24.65
2019-03-28T02:16:08.827Z,27.70
2019-03-28T02:18:37.741Z,22.90
2019-03-28T02:21:09.425Z,28.83
2019-03-28T02:23:36.645Z,26.75
2019-03-28T02:26:05.643Z,29.50
2019-03-28T02:28:34.519Z,17.48
2019-03-28T02:31:04.581Z,26.82
2019-03-28T02:33:33.176Z,29.52
2019-03-28T02:36:02.124Z,31.48
2019-03-28T02:38:32.329Z,27.32
2019-03-28T02:41:02.363Z,26.02
2019-03-28T02:43:31.246Z,30.35
2019-03-28T02:46:04.332Z,29.20
2019-03-28T02:48:33.333Z,26.93
2019-03-28T02:51:01.905Z,28.45
2019-03-28T02:53:30.711Z,26.12
2019-03-28T02:56:00.408Z,25.17
2019-03-28T02:58:29.302Z,24.57
2019-03-28T03:01:00.687Z,24.35
2019-03-28T03:03:29.356Z,37.03
2019-03-28T03:05:59.486Z,29.12
2019-03-28T03:08:28.370Z,23.67
2019-03-28T03:10:57.272Z,30.23
2019-03-28T03:13:27.719Z,28.67
2019-03-28T03:15:56.947Z,25.25
2019-03-28T03:18:26.005Z,23.75
2019-03-28T03:20:56.427Z,29.90
2019-03-28T03:23:26.439Z,32.63
2019-03-28T03:25:55.108Z,30.30
2019-03-28T03:28:24.014Z,31.75
2019-03-28T03:30:54.254Z,30.85
2019-03-28T03:33:24.651Z,31.27
2019-03-28T03:35:53.332Z,30.90
2019-03-28T03:38:22.031Z,26.15
2019-03-28T03:40:50.893Z,34.53
2019-03-28T03:43:19.513Z,30.02
2019-03-28T03:45:51.582Z,26.85
2019-03-28T03:48:20.141Z,28.77
2019-03-28T03:50:52.109Z,33.50
2019-03-28T03:53:21.681Z,29.12
2019-03-28T03:55:50.525Z,36.75
2019-03-28T03:58:19.454Z,26.87
2019-03-28T04:00:48.267Z,37.70
2019-03-28T04:03:17.314Z,28.70
2019-03-28T04:05:46.966Z,26.75
2019-03-28T04:08:15.525Z,33.23
2019-03-28T04:10:44.188Z,28.85
2019-03-28T04:13:12.789Z,35.73
2019-03-28T04:15:41.644Z,34.88
2019-03-28T04:18:10.302Z,29.07
2019-03-28T04:20:39.311Z,22.45
2019-03-28T04:23:08.424Z,28.90
2019-03-28T04:25:37.278Z,28.92
2019-03-28T04:28:05.941Z,30.37
2019-03-28T04:30:35.996Z,32.38
2019-03-28T04:33:04.743Z,36.53
2019-03-28T04:35:33.291Z,36.77
2019-03-28T04:38:01.971Z,29.30
2019-03-28T04:40:30.921Z,32.50
2019-03-28T04:43:00.781Z,35.58
2019-03-28T04:45:29.350Z,34.88
2019-03-28T04:47:58.421Z,29.80
2019-03-28T04:50:27.274Z,31.25
2019-03-28T04:52:55.900Z,28.25
2019-03-28T04:55:24.819Z,25.95
2019-03-28T04:57:55.973Z,28.30
2019-03-28T05:00:26.063Z,23.20
2019-03-28T05:02:54.938Z,33.90
2019-03-28T05:05:23.828Z,36.38
2019-03-28T05:07:52.707Z,30.68
2019-03-28T05:10:24.988Z,29.70
2019-03-28T05:12:57.659Z,35.03
2019-03-28T05:15:26.246Z,36.17
2019-03-28T05:17:55.087Z,29.35
2019-03-28T05:20:23.691Z,32.55
2019-03-28T05:22:52.281Z,32.53
2019-03-28T05:25:21.144Z,40.10
2019-03-28T05:27:49.731Z,37.65
2019-03-28T05:30:19.021Z,34.95
2019-03-28T05:32:47.908Z,39.08
2019-03-28T05:35:16.808Z,42.60
2019-03-28T05:37:45.717Z,38.35
2019-03-28T05:40:16.232Z,39.90
2019-03-28T05:42:44.823Z,40.67
2019-03-28T05:45:15.291Z,38.33
2019-03-28T05:47:44.184Z,51.45
2019-03-28T05:50:14.359Z,38.53
2019-03-28T05:52:42.939Z,45.63
2019-03-28T05:55:12.319Z,36.90
2019-03-28T05:57:41.040Z,38.55
2019-03-28T06:00:14.052Z,37.23
2019-03-28T06:02:43.040Z,39.48
2019-03-28T06:05:11.728Z,37.80
2019-03-28T06:07:40.726Z,40.48
2019-03-28T06:10:10.454Z,43.70
2019-03-28T06:12:42.018Z,43.15
2019-03-28T06:15:12.672Z,39.27
2019-03-28T06:17:43.047Z,40.67
2019-03-28T06:20:13.123Z,46.35
2019-03-28T06:22:42.077Z,45.78
2019-03-28T06:25:10.811Z,43.52
2019-03-28T06:27:39.797Z,38.70
2019-03-28T06:30:09.317Z,48.45
2019-03-28T06:32:43.041Z,51.80
2019-03-28T06:35:08.703Z,45.73
2019-03-28T06:37:37.603Z,41.83
2019-03-28T06:40:07.086Z,50.50
2019-03-28T06:42:35.692Z,47.25
2019-03-28T06:45:06.703Z,52.93
2019-03-28T06:47:35.770Z,47.95
2019-03-28T06:50:07.051Z,46.35
2019-03-28T06:52:36.025Z,47.17
2019-03-28T06:55:06.098Z,48.78
2019-03-28T06:57:34.703Z,53.58
2019-03-28T07:00:04.771Z,50.38
2019-03-28T07:02:33.342Z,40.48
2019-03-28T07:05:01.959Z,43.13
2019-03-28T07:07:30.543Z,52.62
2019-03-28T07:10:02.190Z,48.90
2019-03-28T07:12:29.347Z,44.05
2019-03-28T07:14:59.727Z,45.00
2019-03-28T07:17:28.655Z,43.00
2019-03-28T07:19:57.239Z,46.20
2019-03-28T07:22:25.906Z,43.30
2019-03-28T07:24:54.431Z,39.27
2019-03-28T07:27:23.290Z,46.25
2019-03-28T07:29:52.991Z,50.90
2019-03-28T07:32:22.175Z,41.80
2019-03-28T07:34:52.361Z,39.42
2019-03-28T07:37:22.129Z,50.33
2019-03-28T07:39:50.775Z,46.10
2019-03-28T07:42:19.619Z,45.58
2019-03-28T07:44:48.243Z,34.78
2019-03-28T07:47:17.166Z,47.35
2019-03-28T07:49:46.139Z,41.18
2019-03-28T07:52:19.763Z,42.00
2019-03-28T07:54:45.381Z,40.45
2019-03-28T07:57:16.763Z,39.67
2019-03-28T07:59:45.619Z,47.35
2019-03-28T08:02:14.491Z,41.90
2019-03-28T08:04:43.240Z,43.80
2019-03-28T08:07:12.165Z,34.65
2019-03-28T08:09:44.297Z,35.52
2019-03-28T08:12:22.359Z,36.20
2019-03-28T08:14:43.221Z,36.98
2019-03-28T08:17:11.843Z,24.63
2019-03-28T08:19:41.723Z,30.37
2019-03-28T08:22:10.398Z,35.52
2019-03-28T08:24:38.983Z,29.63
2019-03-28T08:27:07.571Z,28.52
2019-03-28T08:29:39.367Z,22.85
2019-03-28T08:32:09.926Z,33.08
2019-03-28T08:34:39.033Z,32.58
2019-03-28T08:37:09.113Z,27.02
2019-03-28T08:39:44.359Z,27.27
2019-03-28T08:42:09.855Z,26.17
2019-03-28T08:44:38.868Z,28.55
2019-03-28T08:47:07.655Z,26.30
2019-03-28T08:49:36.407Z,25.80
2019-03-28T08:52:04.954Z,25.85
2019-03-28T08:54:33.915Z,23.62
2019-03-28T08:57:02.959Z,24.55
2019-03-28T08:59:33.080Z,22.95
2019-03-28T09:02:04.814Z,24.63
2019-03-28T09:04:32.222Z,22.87
2019-03-28T09:07:01.049Z,26.73
2019-03-28T09:09:31.570Z,17.10
2019-03-28T09:12:02.150Z,25.95
2019-03-28T09:14:31.986Z,21.33
2019-03-28T09:17:01.100Z,23.45
2019-03-28T09:19:30.568Z,24.65
2019-03-28T09:21:59.546Z,19.12
2019-03-28T09:24:28.444Z,21.70
2019-03-28T09:26:57.230Z,14.65
2019-03-28T09:29:26.087Z,19.52
2019-03-28T09:31:54.718Z,12.68
2019-03-28T09:34:24.774Z,18.27
2019-03-28T09:36:53.412Z,16.62
2019-03-28T09:39:24.762Z,26.75
2019-03-28T09:41:53.842Z,21.15
2019-03-28T09:44:22.460Z,26.73
2019-03-28T09:46:51.034Z,25.85
2019-03-28T09:49:20.108Z,24.25
2019-03-28T09:51:49.063Z,21.40
2019-03-28T09:54:17.974Z,25.65
2019-03-28T09:56:46.694Z,23.77
2019-03-28T09:59:15.488Z,23.22
2019-03-28T10:01:47.158Z,27.45
2019-03-28T10:04:16.364Z,24.85
2019-03-28T10:06:44.987Z,22.48
2019-03-28T10:09:13.830Z,25.05
2019-03-28T10:11:42.414Z,24.25
2019-03-28T10:14:10.999Z,24.02
2019-03-28T10:16:40.489Z,21.70
2019-03-28T10:19:09.333Z,26.50
2019-03-28T10:21:37.987Z,23.62
2019-03-28T10:24:06.562Z,21.05
2019-03-28T10:26:35.502Z,25.43
2019-03-28T10:29:04.579Z,26.40
2019-03-28T10:31:33.903Z,17.30
2019-03-28T10:34:05.008Z,16.82
2019-03-28T10:36:33.601Z,18.70
2019-03-28T10:39:03.305Z,19.60
2019-03-28T10:41:31.866Z,16.02
2019-03-28T10:44:00.490Z,15.43
2019-03-28T10:46:29.167Z,7.92
2019-03-28T10:48:58.161Z,8.43
2019-03-28T10:51:28.052Z,13.55
2019-03-28T10:53:58.959Z,14.25
2019-03-28T10:56:27.669Z,12.82
2019-03-28T10:58:57.929Z,11.88
2019-03-28T11:01:46.968Z,13.10
2019-03-28T11:03:57.155Z,14.03
2019-03-28T11:06:27.668Z,12.75
2019-03-28T11:08:56.309Z,16.55
2019-03-28T11:11:24.861Z,11.05
2019-03-28T11:13:53.852Z,25.23
2019-03-28T11:16:22.374Z,18.20
2019-03-28T11:18:52.311Z,18.42
2019-03-28T11:21:21.383Z,14.75
2019-03-28T11:23:50.335Z,10.72
2019-03-28T11:26:19.875Z,16.05
2019-03-28T11:28:49.475Z,10.93
2019-03-28T11:31:18.372Z,17.45
2019-03-28T11:33:47.555Z,13.53
2019-03-28T11:36:16.183Z,13.20
2019-03-28T11:38:45.163Z,16.23
2019-03-28T11:41:14.065Z,13.95
2019-03-28T11:43:42.929Z,9.05
2019-03-28T11:46:11.503Z,18.62
2019-03-28T11:48:40.163Z,11.93
2019-03-28T11:51:09.028Z,7.50
2019-03-28T11:53:37.611Z,13.28
2019-03-28T11:56:06.313Z,13.53
2019-03-28T11:58:35.975Z,10.03
2019-03-28T12:01:04.599Z,8.23
2019-03-28T12:03:34.348Z,8.55
2019-03-28T12:06:06.773Z,10.55
2019-03-28T12:08:35.328Z,10.00
2019-03-28T12:11:04.609Z,14.60
2019-03-28T12:13:44.760Z,9.78
2019-03-28T12:16:07.530Z,13.22
2019-03-28T12:18:37.123Z,16.10
2019-03-28T12:21:05.704Z,10.93
2019-03-28T12:23:34.567Z,16.27
2019-03-28T12:26:04.033Z,14.95
2019-03-28T12:28:32.632Z,10.03
2019-03-28T12:31:01.793Z,10.68
2019-03-28T12:33:30.749Z,14.55
2019-03-28T12:35:59.789Z,14.05
2019-03-28T12:38:31.139Z,9.78
2019-03-28T12:41:01.087Z,9.53
2019-03-28T12:43:29.978Z,11.15
2019-03-28T12:45:58.920Z,10.88
2019-03-28T12:48:27.962Z,15.20
2019-03-28T12:50:59.025Z,9.33
2019-03-28T12:53:26.842Z,13.50
2019-03-28T12:55:55.704Z,12.35
2019-03-28T12:58:24.265Z,10.65
2019-03-28T13:00:52.869Z,8.55
2019-03-28T13:03:22.856Z,12.75
2019-03-28T13:05:52.642Z,11.28
2019-03-28T13:08:21.766Z,9.55
2019-03-28T13:10:50.298Z,10.95
2019-03-28T13:13:18.868Z,12.20
2019-03-28T13:15:47.560Z,10.85
2019-03-28T13:18:16.526Z,12.40
2019-03-28T13:20:45.493Z,14.58
2019-03-28T13:23:16.154Z,10.13
2019-03-28T13:25:46.472Z,13.75
2019-03-28T13:28:16.612Z,12.70
2019-03-28T13:30:46.176Z,11.45
2019-03-28T13:33:16.892Z,16.70
2019-03-28T13:35:45.890Z,13.28
2019-03-28T13:38:14.903Z,17.60
2019-03-28T13:40:43.745Z,11.25
2019-03-28T13:43:13.745Z,11.60
2019-03-28T13:45:42.651Z,13.28
2019-03-28T13:48:13.814Z,14.13
2019-03-28T13:50:43.429Z,11.03
2019-03-28T13:53:12.977Z,16.37
2019-03-28T13:55:42.824Z,16.57
2019-03-28T13:58:12.327Z,11.90
2019-03-28T14:00:54.433Z,15.53
2019-03-28T14:03:23.957Z,13.95
2019-03-28T14:05:59.325Z,9.58
2019-03-28T14:08:30.159Z,12.15
2019-03-28T14:10:59.147Z,10.28
2019-03-28T14:13:31.139Z,12.70
2019-03-28T14:16:00.105Z,11.83
2019-03-28T14:18:29.046Z,12.00
2019-03-28T14:20:57.672Z,12.85
2019-03-28T14:23:26.623Z,9.80
2019-03-28T14:25:55.478Z,14.75
2019-03-28T14:28:24.188Z,15.30
2019-03-28T14:30:52.796Z,11.80
2019-03-28T14:33:21.384Z,11.57
2019-03-28T14:35:54.868Z,12.15
2019-03-28T14:38:23.620Z,13.78
2019-03-28T14:40:52.509Z,13.40
2019-03-28T14:43:21.601Z,14.93
2019-03-28T14:45:50.137Z,13.38
2019-03-28T14:48:20.624Z,13.38
2019-03-28T14:50:49.088Z,15.58
2019-03-28T14:53:18.100Z,14.45
2019-03-28T14:55:46.665Z,11.80
2019-03-28T14:58:15.773Z,13.45
2019-03-28T15:00:49.900Z,11.28
2019-03-28T15:03:26.061Z,14.38
2019-03-28T15:05:51.056Z,15.58
2019-03-28T15:08:19.945Z,9.63
2019-03-28T15:10:48.974Z,9.30
2019-03-28T15:13:17.834Z,12.90
2019-03-28T15:15:46.419Z,8.70
2019-03-28T15:18:17.459Z,11.00
2019-03-28T15:20:46.365Z,10.20
2019-03-28T15:23:14.930Z,10.95
2019-03-28T15:25:43.653Z,11.35
2019-03-28T15:28:12.663Z,15.10
2019-03-28T15:30:42.032Z,11.53
2019-03-28T15:33:10.632Z,13.35
2019-03-28T15:35:39.486Z,13.90
2019-03-28T15:38:08.356Z,14.65
2019-03-28T15:40:36.988Z,14.60
2019-03-28T15:43:05.965Z,12.15
2019-03-28T15:45:37.203Z,13.62
2019-03-28T15:48:09.980Z,13.15
2019-03-28T15:50:38.933Z,14.78
2019-03-28T15:53:07.514Z,11.10
2019-03-28T15:55:36.010Z,10.95
2019-03-28T15:58:22.150Z,11.43
2019-03-28T16:00:39.001Z,12.43
2019-03-28T16:03:09.414Z,15.05
2019-03-28T16:05:39.010Z,11.83
2019-03-28T16:08:07.496Z,13.88
2019-03-28T16:10:36.416Z,16.48
2019-03-28T16:13:05.922Z,14.40
2019-03-28T16:15:34.568Z,12.80
2019-03-28T16:18:03.486Z,15.38
2019-03-28T16:20:32.265Z,11.48
2019-03-28T16:23:04.218Z,14.60
2019-03-28T16:25:33.158Z,14.00
2019-03-28T16:28:02.090Z,14.85
2019-03-28T16:30:37.686Z,17.27
2019-03-28T16:33:07.124Z,14.23
2019-03-28T16:35:35.860Z,19.98
2019-03-28T16:38:06.087Z,9.05
2019-03-28T16:40:35.642Z,11.43
2019-03-28T16:43:04.242Z,16.17
2019-03-28T16:45:33.053Z,10.65
2019-03-28T16:48:01.553Z,15.40
2019-03-28T16:50:30.438Z,15.32
2019-03-28T16:52:59.066Z,11.18
2019-03-28T16:55:28.285Z,12.45
2019-03-28T16:57:57.286Z,12.00
2019-03-28T17:00:37.224Z,13.78
2019-03-28T17:03:08.328Z,13.30
2019-03-28T17:05:38.692Z,12.60
2019-03-28T17:08:07.686Z,20.12
2019-03-28T17:10:46.882Z,14.80
2019-03-28T17:13:19.000Z,14.98
2019-03-28T17:15:47.558Z,14.10
2019-03-28T17:18:19.286Z,12.58
2019-03-28T17:20:51.162Z,15.55
2019-03-28T17:23:20.064Z,16.35
2019-03-28T17:25:52.971Z,8.83
2019-03-28T17:28:21.496Z,14.95
2019-03-28T17:30:50.404Z,15.70
2019-03-28T17:33:19.335Z,12.37
2019-03-28T17:35:50.221Z,10.75
2019-03-28T17:38:18.974Z,10.38
2019-03-28T17:40:47.863Z,11.75
2019-03-28T17:43:17.551Z,9.35
2019-03-28T17:45:49.123Z,14.40
2019-03-28T17:48:17.950Z,13.98
2019-03-28T17:50:46.600Z,17.77
2019-03-28T17:53:15.488Z,19.20
2019-03-28T17:55:44.289Z,12.83
2019-03-28T17:58:13.265Z,14.30
2019-03-28T18:00:43.567Z,10.43
2019-03-28T18:03:12.157Z,12.53
2019-03-28T18:05:41.107Z,15.43
2019-03-28T18:08:10.724Z,18.77
2019-03-28T18:10:39.176Z,12.82
2019-03-28T18:13:07.657Z,15.38
2019-03-28T18:15:36.587Z,16.23
2019-03-28T18:18:05.712Z,14.28
2019-03-28T18:20:34.195Z,11.53
2019-03-28T18:23:02.639Z,12.50
2019-03-28T18:25:33.722Z,14.75
2019-03-28T18:28:02.619Z,13.30
2019-03-28T18:30:31.942Z,15.38
2019-03-28T18:33:03.752Z,12.85
2019-03-28T18:35:30.659Z,16.42
2019-03-28T18:37:59.108Z,15.18
2019-03-28T18:40:27.887Z,11.55
2019-03-28T18:42:57.896Z,11.95
2019-03-28T18:45:26.885Z,16.85
2019-03-28T18:47:55.590Z,17.52
2019-03-28T18:50:26.383Z,13.45
2019-03-28T18:52:54.835Z,19.60
2019-03-28T18:55:23.318Z,19.98
2019-03-28T18:57:51.885Z,18.60
2019-03-28T19:00:21.834Z,22.90
2019-03-28T19:02:50.361Z,22.58
2019-03-28T19:05:20.303Z,21.90
2019-03-28T19:07:49.448Z,17.52
2019-03-28T19:10:18.297Z,19.00
2019-03-28T19:12:47.826Z,20.95
2019-03-28T19:15:16.680Z,20.60
2019-03-28T19:17:45.259Z,18.02
2019-03-28T19:20:14.795Z,23.07
2019-03-28T19:22:45.666Z,21.23
2019-03-28T19:25:16.446Z,22.00
2019-03-28T19:27:46.480Z,16.27
2019-03-28T19:30:15.622Z,22.48
2019-03-28T19:32:44.558Z,20.50
2019-03-28T19:35:13.289Z,20.95
2019-03-28T19:37:44.746Z,16.70
2019-03-28T19:40:15.102Z,17.42
2019-03-28T19:42:44.088Z,25.52
2019-03-28T19:45:16.065Z,20.55
2019-03-28T19:47:46.070Z,23.22
2019-03-28T19:50:18.129Z,25.85
2019-03-28T19:52:46.726Z,23.42
2019-03-28T19:55:18.289Z,23.55
2019-03-28T19:57:47.082Z,19.85
2019-03-28T20:00:15.959Z,19.27
2019-03-28T20:02:44.731Z,19.62
2019-03-28T20:05:13.845Z,26.70
2019-03-28T20:07:45.669Z,25.25
2019-03-28T20:10:16.497Z,17.52
2019-03-28T20:12:43.109Z,16.70
2019-03-28T20:15:12.159Z,23.87
2019-03-28T20:17:40.677Z,18.02
2019-03-28T20:20:09.707Z,19.32
2019-03-28T20:22:39.076Z,26.17
2019-03-28T20:25:08.922Z,21.45
2019-03-28T20:27:37.473Z,21.37
2019-03-28T20:30:07.550Z,21.97
2019-03-28T20:32:36.075Z,29.30
2019-03-28T20:35:05.366Z,25.30
2019-03-28T20:37:33.901Z,26.33
2019-03-28T20:40:02.725Z,24.27
2019-03-28T20:42:31.970Z,31.75
2019-03-28T20:45:00.501Z,23.65
2019-03-28T20:47:29.318Z,21.52
2019-03-28T20:49:58.087Z,31.45
2019-03-28T20:52:27.947Z,26.42
2019-03-28T20:54:56.640Z,25.60
2019-03-28T20:57:26.556Z,24.47
2019-03-28T20:59:55.080Z,25.23
2019-03-28T21:02:23.797Z,26.87
2019-03-28T21:04:53.854Z,23.35
2019-03-28T21:07:22.409Z,25.77
2019-03-28T21:09:50.924Z,24.35
2019-03-28T21:12:19.727Z,26.75
2019-03-28T21:14:48.216Z,29.40
2019-03-28T21:17:16.664Z,31.23
2019-03-28T21:19:45.422Z,25.97
2019-03-28T21:22:14.249Z,33.28
2019-03-28T21:24:46.414Z,46.95
2019-03-28T21:27:14.894Z,33.78
2019-03-28T21:29:49.155Z,28.45
2019-03-28T21:32:15.342Z,28.27
2019-03-28T21:34:44.649Z,31.55
2019-03-28T21:37:13.490Z,27.07
2019-03-28T21:39:43.927Z,28.25
2019-03-28T21:42:13.961Z,25.52
2019-03-28T21:44:45.517Z,34.80
2019-03-28T21:47:17.107Z,32.53
2019-03-28T21:49:45.934Z,27.17
2019-03-28T21:52:17.940Z,27.00
2019-03-28T21:54:48.618Z,34.43
2019-03-28T21:57:17.106Z,26.37
2019-03-28T21:59:47.148Z,28.05
2019-03-28T22:02:16.160Z,26.77
2019-03-28T22:04:44.702Z,31.80
2019-03-28T22:07:13.578Z,28.00
2019-03-28T22:09:43.174Z,34.67
2019-03-28T22:12:11.963Z,33.28
2019-03-28T22:14:43.692Z,30.00
2019-03-28T22:17:16.423Z,34.83
2019-03-28T22:19:44.955Z,31.40
2019-03-28T22:22:14.425Z,27.87
2019-03-28T22:24:43.166Z,23.25
2019-03-28T22:27:11.937Z,28.73
2019-03-28T22:29:40.490Z,25.72
2019-03-28T22:32:11.675Z,32.53
2019-03-28T22:34:40.264Z,34.58
2019-03-28T22:37:09.086Z,33.25
2019-03-28T22:39:38.933Z,30.45
2019-03-28T22:42:07.688Z,35.68
2019-03-28T22:44:36.987Z,32.15
2019-03-28T22:47:06.120Z,34.63
2019-03-28T22:49:35.140Z,30.05
2019-03-28T22:52:03.583Z,33.15
2019-03-28T22:54:32.330Z,33.55
2019-03-28T22:57:02.440Z,33.70
2019-03-28T22:59:32.082Z,36.42
2019-03-28T23:02:00.613Z,32.73
2019-03-28T23:04:29.912Z,30.45
2019-03-28T23:07:10.315Z,35.55
2019-03-28T23:09:28.918Z,35.45
2019-03-28T23:11:57.408Z,31.37
2019-03-28T23:14:25.862Z,28.77
2019-03-28T23:16:55.113Z,27.75
2019-03-28T23:19:24.301Z,27.27
2019-03-28T23:21:53.110Z,35.70
2019-03-28T23:24:22.039Z,29.48
2019-03-28T23:26:50.953Z,32.23
2019-03-28T23:29:19.396Z,34.38
2019-03-28T23:31:52.435Z,29.48
2019-03-28T23:34:21.241Z,30.02
2019-03-28T23:36:51.577Z,24.60
2019-03-28T23:39:20.067Z,32.38
2019-03-28T23:41:49.813Z,33.02
2019-03-28T23:44:18.669Z,33.10
2019-03-28T23:46:47.507Z,34.78
2019-03-28T23:49:24.732Z,31.90
2019-03-28T23:51:53.206Z,30.88
2019-03-28T23:54:23.094Z,33.10
2019-03-28T23:56:51.823Z,36.42
2019-03-28T23:59:20.669Z,40.63
